sensor_id;sensor_type;location;lat;lon;timestamp;pressure;altitude;pressure_sealevel;temperature;humidity
12785;BME280;6456;42.680;23.260;2023-02-26T00:01:54;93448.88;;;14.88;46.91
12785;BME280;6456;42.680;23.260;2023-02-26T00:04:22;93426.91;;;14.77;46.22
12785;BME280;6456;42.680;23.260;2023-02-26T00:06:50;93412.59;;;14.78;45.35
12785;BME280;6456;42.680;23.260;2023-02-26T00:09:29;93443.56;;;14.88;47.85
12785;BME280;6456;42.680;23.260;2023-02-26T00:11:57;93431.66;;;14.90;48.62
12785;BME280;6456;42.680;23.260;2023-02-26T00:14:24;93429.00;;;14.95;47.61
12785;BME280;6456;42.680;23.260;2023-02-26T00:16:57;93435.88;;;14.96;47.43
12785;BME280;6456;42.680;23.260;2023-02-26T00:19:31;93381.88;;;14.82;47.56
12785;BME280;6456;42.680;23.260;2023-02-26T00:22:00;93366.03;;;14.47;46.70
12785;BME280;6456;42.680;23.260;2023-02-26T00:24:27;93418.44;;;14.75;46.81
12785;BME280;6456;42.680;23.260;2023-02-26T00:26:53;93415.78;;;14.85;46.61
12785;BME280;6456;42.680;23.260;2023-02-26T00:29:21;93309.94;;;14.25;45.10
12785;BME280;6456;42.680;23.260;2023-02-26T00:31:48;93345.94;;;14.31;46.09
12785;BME280;6456;42.680;23.260;2023-02-26T00:34:16;93293.28;;;14.14;47.11
12785;BME280;6456;42.680;23.260;2023-02-26T00:36:46;93402.53;;;14.90;46.65
12785;BME280;6456;42.680;23.260;2023-02-26T00:39:25;93340.63;;;14.36;46.78
12785;BME280;6456;42.680;23.260;2023-02-26T00:41:57;93417.09;;;14.83;46.27
12785;BME280;6456;42.680;23.260;2023-02-26T00:44:28;93392.47;;;14.82;46.75
12785;BME280;6456;42.680;23.260;2023-02-26T00:47:02;93419.47;;;14.69;47.28
12785;BME280;6456;42.680;23.260;2023-02-26T00:49:44;93375.28;;;14.64;46.54
12785;BME280;6456;42.680;23.260;2023-02-26T00:52:24;93386.91;;;14.68;45.85
12785;BME280;6456;42.680;23.260;2023-02-26T00:54:54;93338.50;;;14.58;45.93
12785;BME280;6456;42.680;23.260;2023-02-26T00:57:24;93409.94;;;14.83;45.94
12785;BME280;6456;42.680;23.260;2023-02-26T00:59:51;93396.44;;;14.74;45.44
12785;BME280;6456;42.680;23.260;2023-02-26T01:02:18;93389.31;;;14.65;45.70
12785;BME280;6456;42.680;23.260;2023-02-26T01:04:45;93393.53;;;14.71;45.85
12785;BME280;6456;42.680;23.260;2023-02-26T01:07:13;93377.66;;;14.61;45.57
12785;BME280;6456;42.680;23.260;2023-02-26T01:09:41;93380.81;;;14.78;45.70
12785;BME280;6456;42.680;23.260;2023-02-26T01:12:11;93341.72;;;14.40;45.55
12785;BME280;6456;42.680;23.260;2023-02-26T01:14:40;93402.78;;;14.73;45.23
12785;BME280;6456;42.680;23.260;2023-02-26T01:17:11;93366.81;;;14.72;44.51
12785;BME280;6456;42.680;23.260;2023-02-26T01:19:45;93378.72;;;14.70;44.61
12785;BME280;6456;42.680;23.260;2023-02-26T01:22:19;93320.78;;;14.38;45.07
12785;BME280;6456;42.680;23.260;2023-02-26T01:24:50;93361.22;;;14.74;44.35
12785;BME280;6456;42.680;23.260;2023-02-26T01:27:22;93262.84;;;14.11;43.55
12785;BME280;6456;42.680;23.260;2023-02-26T01:29:49;93361.75;;;14.76;44.39
12785;BME280;6456;42.680;23.260;2023-02-26T01:32:20;93360.19;;;14.70;44.75
12785;BME280;6456;42.680;23.260;2023-02-26T01:34:55;93339.56;;;14.52;44.38
12785;BME280;6456;42.680;23.260;2023-02-26T01:37:28;93345.38;;;14.59;44.11
12785;BME280;6456;42.680;23.260;2023-02-26T01:40:22;93359.91;;;14.71;44.17
12785;BME280;6456;42.680;23.260;2023-02-26T01:43:01;93307.28;;;14.45;44.09
12785;BME280;6456;42.680;23.260;2023-02-26T01:45:34;93340.59;;;14.56;44.23
12785;BME280;6456;42.680;23.260;2023-02-26T01:48:05;93353.31;;;14.64;44.10
12785;BME280;6456;42.680;23.260;2023-02-26T01:50:50;93325.53;;;14.46;43.73
12785;BME280;6456;42.680;23.260;2023-02-26T01:53:21;93334.25;;;14.62;43.51
12785;BME280;6456;42.680;23.260;2023-02-26T01:55:52;93279.75;;;14.26;43.59
12785;BME280;6456;42.680;23.260;2023-02-26T01:58:24;93278.72;;;14.27;44.01
12785;BME280;6456;42.680;23.260;2023-02-26T02:00:51;93259.66;;;14.30;43.98
12785;BME280;6456;42.680;23.260;2023-02-26T02:03:19;93331.63;;;14.57;43.43
12785;BME280;6456;42.680;23.260;2023-02-26T02:05:51;93292.47;;;14.44;43.03
12785;BME280;6456;42.680;23.260;2023-02-26T02:08:20;93263.38;;;14.24;43.70
12785;BME280;6456;42.680;23.260;2023-02-26T02:10:49;93313.09;;;14.52;43.87
12785;BME280;6456;42.680;23.260;2023-02-26T02:13:30;93268.41;;;14.20;43.64
12785;BME280;6456;42.680;23.260;2023-02-26T02:16:10;93280.59;;;14.31;43.73
12785;BME280;6456;42.680;23.260;2023-02-26T02:18:44;93301.22;;;14.44;43.71
12785;BME280;6456;42.680;23.260;2023-02-26T02:24:11;93248.56;;;14.23;43.29
12785;BME280;6456;42.680;23.260;2023-02-26T02:27:05;93266.78;;;14.49;43.50
12785;BME280;6456;42.680;23.260;2023-02-26T02:30:07;93221.88;;;14.09;43.50
12785;BME280;6456;42.680;23.260;2023-02-26T02:32:43;93271.59;;;14.37;43.75
12785;BME280;6456;42.680;23.260;2023-02-26T02:35:16;93243.31;;;14.07;43.73
12785;BME280;6456;42.680;23.260;2023-02-26T02:37:47;93275.56;;;14.35;43.55
12785;BME280;6456;42.680;23.260;2023-02-26T02:40:19;93299.09;;;14.41;43.43
12785;BME280;6456;42.680;23.260;2023-02-26T02:42:52;93300.41;;;14.34;43.24
12785;BME280;6456;42.680;23.260;2023-02-26T02:45:24;93311.00;;;14.34;43.44
12785;BME280;6456;42.680;23.260;2023-02-26T02:48:00;93245.41;;;13.85;43.61
12785;BME280;6456;42.680;23.260;2023-02-26T02:50:34;93314.16;;;14.41;43.26
12785;BME280;6456;42.680;23.260;2023-02-26T02:53:05;93319.47;;;14.36;43.48
12785;BME280;6456;42.680;23.260;2023-02-26T02:55:37;93318.94;;;14.39;42.91
12785;BME280;6456;42.680;23.260;2023-02-26T02:58:08;93219.53;;;13.87;42.52
12785;BME280;6456;42.680;23.260;2023-02-26T03:00:39;93308.88;;;14.36;42.45
12785;BME280;6456;42.680;23.260;2023-02-26T03:03:15;93294.06;;;14.09;43.02
12785;BME280;6456;42.680;23.260;2023-02-26T03:05:44;93308.88;;;14.26;42.77
12785;BME280;6456;42.680;23.260;2023-02-26T03:08:14;93332.69;;;14.36;42.41
12785;BME280;6456;42.680;23.260;2023-02-26T03:10:42;93338.53;;;14.33;42.68
12785;BME280;6456;42.680;23.260;2023-02-26T03:13:14;93285.63;;;14.07;42.39
12785;BME280;6456;42.680;23.260;2023-02-26T03:15:50;93299.09;;;14.21;42.54
12785;BME280;6456;42.680;23.260;2023-02-26T03:18:29;93311.50;;;14.26;42.48
12785;BME280;6456;42.680;23.260;2023-02-26T03:21:02;93323.44;;;14.33;41.79
12785;BME280;6456;42.680;23.260;2023-02-26T03:23:33;93329.28;;;14.35;41.54
12785;BME280;6456;42.680;23.260;2023-02-26T03:26:09;93281.38;;;14.01;41.88
12785;BME280;6456;42.680;23.260;2023-02-26T03:28:40;93302.81;;;14.20;42.35
12785;BME280;6456;42.680;23.260;2023-02-26T03:31:16;93269.22;;;13.85;42.05
12785;BME280;6456;42.680;23.260;2023-02-26T03:33:53;93289.31;;;14.17;42.22
12785;BME280;6456;42.680;23.260;2023-02-26T03:36:26;93310.47;;;14.37;42.12
12785;BME280;6456;42.680;23.260;2023-02-26T03:39:00;93330.59;;;14.33;42.89
12785;BME280;6456;42.680;23.260;2023-02-26T03:41:37;93280.88;;;13.99;43.33
12785;BME280;6456;42.680;23.260;2023-02-26T03:44:13;93307.28;;;14.20;43.75
12785;BME280;6456;42.680;23.260;2023-02-26T03:46:47;93320.75;;;14.28;43.94
12785;BME280;6456;42.680;23.260;2023-02-26T03:49:21;93318.94;;;14.19;44.30
12785;BME280;6456;42.680;23.260;2023-02-26T03:51:50;93255.22;;;13.90;44.20
12785;BME280;6456;42.680;23.260;2023-02-26T03:54:21;93324.75;;;14.21;45.08
12785;BME280;6456;42.680;23.260;2023-02-26T03:56:51;93312.06;;;14.18;45.54
12785;BME280;6456;42.680;23.260;2023-02-26T03:59:18;93306.22;;;14.10;45.70
12785;BME280;6456;42.680;23.260;2023-02-26T04:01:50;93280.34;;;13.92;45.34
12785;BME280;6456;42.680;23.260;2023-02-26T04:04:26;93282.97;;;14.02;44.49
12785;BME280;6456;42.680;23.260;2023-02-26T04:06:54;93267.38;;;13.91;44.31
12785;BME280;6456;42.680;23.260;2023-02-26T04:09:22;93251.78;;;13.79;44.81
12785;BME280;6456;42.680;23.260;2023-02-26T04:11:51;93270.53;;;13.93;44.71
12785;BME280;6456;42.680;23.260;2023-02-26T04:14:18;93315.75;;;14.17;45.20
12785;BME280;6456;42.680;23.260;2023-02-26T04:16:46;93307.81;;;14.11;45.84
12785;BME280;6456;42.680;23.260;2023-02-26T04:19:13;93296.19;;;14.02;45.28
12785;BME280;6456;42.680;23.260;2023-02-26T04:21:42;93246.22;;;13.61;44.56
12785;BME280;6456;42.680;23.260;2023-02-26T04:24:09;93223.75;;;13.68;43.49
12785;BME280;6456;42.680;23.260;2023-02-26T04:26:36;93249.66;;;13.81;43.79
12785;BME280;6456;42.680;23.260;2023-02-26T04:29:03;93273.16;;;14.13;44.22
12785;BME280;6456;42.680;23.260;2023-02-26T04:31:30;93213.16;;;13.78;43.42
12785;BME280;6456;42.680;23.260;2023-02-26T04:33:57;93210.81;;;13.77;43.48
12785;BME280;6456;42.680;23.260;2023-02-26T04:36:24;93268.66;;;14.24;43.30
12785;BME280;6456;42.680;23.260;2023-02-26T04:38:52;93274.47;;;14.26;42.73
12785;BME280;6456;42.680;23.260;2023-02-26T04:41:19;93278.72;;;14.17;43.05
12785;BME280;6456;42.680;23.260;2023-02-26T04:43:46;93258.88;;;14.24;43.09
12785;BME280;6456;42.680;23.260;2023-02-26T04:46:13;93244.34;;;14.11;42.63
12785;BME280;6456;42.680;23.260;2023-02-26T04:48:40;93215.25;;;14.11;42.55
12785;BME280;6456;42.680;23.260;2023-02-26T04:51:07;93245.94;;;14.12;42.56
12785;BME280;6456;42.680;23.260;2023-02-26T04:53:34;93165.38;;;13.65;41.38
12785;BME280;6456;42.680;23.260;2023-02-26T04:56:02;93213.16;;;14.03;41.70
12785;BME280;6456;42.680;23.260;2023-02-26T04:58:29;93224.78;;;14.12;41.40
12785;BME280;6456;42.680;23.260;2023-02-26T05:00:56;93237.72;;;14.14;41.07
12785;BME280;6456;42.680;23.260;2023-02-26T05:03:23;93214.97;;;14.18;40.99
12785;BME280;6456;42.680;23.260;2023-02-26T05:05:51;93208.63;;;14.24;40.77
12785;BME280;6456;42.680;23.260;2023-02-26T05:08:18;93179.81;;;14.12;40.82
12785;BME280;6456;42.680;23.260;2023-02-26T05:10:46;93201.47;;;14.25;40.27
12785;BME280;6456;42.680;23.260;2023-02-26T05:13:15;93200.13;;;14.42;39.98
12785;BME280;6456;42.680;23.260;2023-02-26T05:15:42;93201.19;;;14.41;39.93
12785;BME280;6456;42.680;23.260;2023-02-26T05:18:13;93193.22;;;14.46;39.64
12785;BME280;6456;42.680;23.260;2023-02-26T05:20:51;93192.44;;;14.41;38.88
12785;BME280;6456;42.680;23.260;2023-02-26T05:23:18;93203.00;;;14.51;39.02
12785;BME280;6456;42.680;23.260;2023-02-26T05:25:46;93195.63;;;14.43;39.60
12785;BME280;6456;42.680;23.260;2023-02-26T05:28:15;93117.94;;;14.03;39.52
12785;BME280;6456;42.680;23.260;2023-02-26T05:30:42;93193.72;;;14.53;39.28
12785;BME280;6456;42.680;23.260;2023-02-26T05:33:09;93176.59;;;14.31;39.49
12785;BME280;6456;42.680;23.260;2023-02-26T05:35:36;93186.91;;;14.42;39.25
12785;BME280;6456;42.680;23.260;2023-02-26T05:38:03;93190.81;;;14.55;39.27
12785;BME280;6456;42.680;23.260;2023-02-26T05:40:31;93177.81;;;14.58;38.90
12785;BME280;6456;42.680;23.260;2023-02-26T05:42:58;93118.47;;;14.00;39.20
12785;BME280;6456;42.680;23.260;2023-02-26T05:45:26;93122.63;;;14.27;38.96
12785;BME280;6456;42.680;23.260;2023-02-26T05:47:53;93179.19;;;14.51;38.56
12785;BME280;6456;42.680;23.260;2023-02-26T05:50:20;93117.34;;;14.27;38.16
12785;BME280;6456;42.680;23.260;2023-02-26T05:52:47;93164.06;;;14.56;37.92
12785;BME280;6456;42.680;23.260;2023-02-26T05:55:14;93213.47;;;14.76;37.92
12785;BME280;6456;42.680;23.260;2023-02-26T05:57:41;93174.84;;;14.75;37.07
12785;BME280;6456;42.680;23.260;2023-02-26T06:00:11;93157.84;;;14.81;39.25
12785;BME280;6456;42.680;23.260;2023-02-26T06:02:40;93200.09;;;15.06;39.25
12785;BME280;6456;42.680;23.260;2023-02-26T06:05:09;93181.47;;;15.16;37.54
12785;BME280;6456;42.680;23.260;2023-02-26T06:07:36;93195.75;;;15.25;38.36
12785;BME280;6456;42.680;23.260;2023-02-26T06:10:03;93203.44;;;15.22;35.60
12785;BME280;6456;42.680;23.260;2023-02-26T06:12:30;93213.44;;;15.35;35.15
12785;BME280;6456;42.680;23.260;2023-02-26T06:14:57;93207.06;;;15.36;34.75
12785;BME280;6456;42.680;23.260;2023-02-26T06:17:23;93226.66;;;15.40;34.72
12785;BME280;6456;42.680;23.260;2023-02-26T06:19:52;93225.31;;;15.43;34.59
12785;BME280;6456;42.680;23.260;2023-02-26T06:22:18;93223.75;;;15.36;34.67
12785;BME280;6456;42.680;23.260;2023-02-26T06:24:45;93221.56;;;15.49;34.75
12785;BME280;6456;42.680;23.260;2023-02-26T06:27:12;93227.94;;;15.53;34.21
12785;BME280;6456;42.680;23.260;2023-02-26T06:29:39;93232.09;;;15.59;34.41
12785;BME280;6456;42.680;23.260;2023-02-26T06:32:06;93222.88;;;15.51;34.06
12785;BME280;6456;42.680;23.260;2023-02-26T06:34:32;93234.47;;;15.65;33.95
12785;BME280;6456;42.680;23.260;2023-02-26T06:37:00;93234.44;;;15.70;33.62
12785;BME280;6456;42.680;23.260;2023-02-26T06:39:27;93218.19;;;15.77;33.05
12785;BME280;6456;42.680;23.260;2023-02-26T06:41:54;93223.44;;;15.82;33.31
12785;BME280;6456;42.680;23.260;2023-02-26T06:44:21;93222.94;;;15.80;33.05
12785;BME280;6456;42.680;23.260;2023-02-26T06:46:48;93221.81;;;15.86;33.03
12785;BME280;6456;42.680;23.260;2023-02-26T06:49:15;93159.03;;;15.76;32.57
12785;BME280;6456;42.680;23.260;2023-02-26T06:51:42;93214.59;;;15.91;32.50
12785;BME280;6456;42.680;23.260;2023-02-26T06:54:10;93143.69;;;15.39;32.10
12785;BME280;6456;42.680;23.260;2023-02-26T06:56:37;93180.63;;;15.93;31.96
12785;BME280;6456;42.680;23.260;2023-02-26T06:59:04;93220.13;;;16.00;32.37
12785;BME280;6456;42.680;23.260;2023-02-26T07:01:31;93231.16;;;16.12;31.58
12785;BME280;6456;42.680;23.260;2023-02-26T07:03:58;93180.03;;;16.01;31.82
12785;BME280;6456;42.680;23.260;2023-02-26T07:06:25;93204.59;;;16.12;31.67
12785;BME280;6456;42.680;23.260;2023-02-26T07:08:52;93202.91;;;16.21;31.55
12785;BME280;6456;42.680;23.260;2023-02-26T07:11:20;93212.97;;;16.24;31.57
12785;BME280;6456;42.680;23.260;2023-02-26T07:13:47;93125.25;;;16.16;31.71
12785;BME280;6456;42.680;23.260;2023-02-26T07:16:15;93198.09;;;16.28;31.83
12785;BME280;6456;42.680;23.260;2023-02-26T07:18:42;93202.81;;;16.31;31.47
12785;BME280;6456;42.680;23.260;2023-02-26T07:21:09;93213.06;;;16.43;31.72
12785;BME280;6456;42.680;23.260;2023-02-26T07:23:36;93200.22;;;16.26;31.82
12785;BME280;6456;42.680;23.260;2023-02-26T07:28:49;93237.88;;;16.57;31.88
12785;BME280;6456;42.680;23.260;2023-02-26T07:31:16;93215.66;;;16.48;31.91
12785;BME280;6456;42.680;23.260;2023-02-26T07:33:43;93208.19;;;16.50;31.82
12785;BME280;6456;42.680;23.260;2023-02-26T07:36:10;93230.22;;;16.50;31.96
12785;BME280;6456;42.680;23.260;2023-02-26T07:38:36;93245.25;;;16.65;31.22
12785;BME280;6456;42.680;23.260;2023-02-26T07:41:03;93220.31;;;16.61;32.03
12785;BME280;6456;42.680;23.260;2023-02-26T07:43:30;93225.78;;;16.70;31.93
12785;BME280;6456;42.680;23.260;2023-02-26T07:45:58;93220.47;;;16.70;31.54
12785;BME280;6456;42.680;23.260;2023-02-26T07:48:25;93217.81;;;16.70;32.07
12785;BME280;6456;42.680;23.260;2023-02-26T07:50:53;93212.47;;;16.75;31.94
12785;BME280;6456;42.680;23.260;2023-02-26T07:53:20;93216.84;;;16.84;30.93
12785;BME280;6456;42.680;23.260;2023-02-26T07:55:47;93227.47;;;16.84;31.67
12785;BME280;6456;42.680;23.260;2023-02-26T07:58:14;93212.09;;;16.81;31.48
12785;BME280;6456;42.680;23.260;2023-02-26T08:00:41;93164.91;;;16.54;31.55
12785;BME280;6456;42.680;23.260;2023-02-26T08:03:09;93209.06;;;16.93;30.95
12785;BME280;6456;42.680;23.260;2023-02-26T08:05:36;93206.34;;;16.98;30.78
12785;BME280;6456;42.680;23.260;2023-02-26T08:08:03;93244.69;;;17.10;31.44
12785;BME280;6456;42.680;23.260;2023-02-26T08:10:34;93176.28;;;16.79;30.88
12785;BME280;6456;42.680;23.260;2023-02-26T08:13:06;93234.50;;;17.17;31.16
12785;BME280;6456;42.680;23.260;2023-02-26T08:15:33;93238.47;;;17.20;30.88
12785;BME280;6456;42.680;23.260;2023-02-26T08:17:59;93159.13;;;16.90;30.96
12785;BME280;6456;42.680;23.260;2023-02-26T08:20:28;93174.16;;;16.81;31.68
12785;BME280;6456;42.680;23.260;2023-02-26T08:22:55;93243.34;;;17.31;31.18
12785;BME280;6456;42.680;23.260;2023-02-26T08:25:22;93229.41;;;17.40;31.14
12785;BME280;6456;42.680;23.260;2023-02-26T08:27:48;93236.59;;;17.39;30.92
12785;BME280;6456;42.680;23.260;2023-02-26T08:30:15;93237.31;;;17.45;30.99
12785;BME280;6456;42.680;23.260;2023-02-26T08:32:42;93247.59;;;17.51;30.70
12785;BME280;6456;42.680;23.260;2023-02-26T08:35:11;93252.41;;;17.49;31.04
12785;BME280;6456;42.680;23.260;2023-02-26T08:37:39;93258.19;;;17.56;30.39
12785;BME280;6456;42.680;23.260;2023-02-26T08:40:08;93260.56;;;17.58;30.92
12785;BME280;6456;42.680;23.260;2023-02-26T08:42:35;93262.34;;;17.62;30.82
12785;BME280;6456;42.680;23.260;2023-02-26T08:45:03;93265.09;;;17.76;30.97
12785;BME280;6456;42.680;23.260;2023-02-26T08:47:30;93247.97;;;17.82;30.53
12785;BME280;6456;42.680;23.260;2023-02-26T08:49:57;93235.75;;;17.62;30.26
12785;BME280;6456;42.680;23.260;2023-02-26T08:52:24;93266.31;;;17.83;30.34
12785;BME280;6456;42.680;23.260;2023-02-26T08:54:52;93257.22;;;17.84;29.83
12785;BME280;6456;42.680;23.260;2023-02-26T08:57:19;93279.81;;;17.87;29.94
12785;BME280;6456;42.680;23.260;2023-02-26T08:59:46;93173.94;;;17.33;29.44
12785;BME280;6456;42.680;23.260;2023-02-26T09:02:13;93263.78;;;17.92;29.50
12785;BME280;6456;42.680;23.260;2023-02-26T09:04:42;93250.91;;;17.80;29.24
12785;BME280;6456;42.680;23.260;2023-02-26T09:07:11;93263.50;;;17.93;29.30
12785;BME280;6456;42.680;23.260;2023-02-26T09:09:37;93231.56;;;17.75;29.51
12785;BME280;6456;42.680;23.260;2023-02-26T09:12:06;93233.44;;;17.74;29.49
12785;BME280;6456;42.680;23.260;2023-02-26T09:14:33;93266.00;;;18.04;29.17
12785;BME280;6456;42.680;23.260;2023-02-26T09:17:00;93258.25;;;18.21;29.37
12785;BME280;6456;42.680;23.260;2023-02-26T09:19:27;93267.00;;;18.21;27.96
12785;BME280;6456;42.680;23.260;2023-02-26T09:21:53;93275.84;;;18.35;28.16
12785;BME280;6456;42.680;23.260;2023-02-26T09:24:20;93274.72;;;18.55;27.72
12785;BME280;6456;42.680;23.260;2023-02-26T09:26:50;93266.75;;;18.69;27.21
12785;BME280;6456;42.680;23.260;2023-02-26T09:29:18;93286.00;;;18.79;27.80
12785;BME280;6456;42.680;23.260;2023-02-26T09:31:45;93281.97;;;18.95;27.47
12785;BME280;6456;42.680;23.260;2023-02-26T09:34:12;93265.09;;;19.13;27.34
12785;BME280;6456;42.680;23.260;2023-02-26T09:36:39;93289.88;;;19.28;26.82
12785;BME280;6456;42.680;23.260;2023-02-26T09:39:08;93282.94;;;19.27;26.45
12785;BME280;6456;42.680;23.260;2023-02-26T09:41:38;93273.09;;;19.41;25.97
12785;BME280;6456;42.680;23.260;2023-02-26T09:44:14;93278.78;;;19.34;26.09
12785;BME280;6456;42.680;23.260;2023-02-26T09:46:50;93261.72;;;19.21;25.98
12785;BME280;6456;42.680;23.260;2023-02-26T09:49:26;93301.72;;;19.21;26.02
12785;BME280;6456;42.680;23.260;2023-02-26T09:51:59;93287.91;;;19.06;26.50
12785;BME280;6456;42.680;23.260;2023-02-26T09:54:31;93284.03;;;19.12;26.63
12785;BME280;6456;42.680;23.260;2023-02-26T09:57:02;93309.03;;;19.16;27.05
12785;BME280;6456;42.680;23.260;2023-02-26T09:59:32;93298.16;;;19.12;27.15
12785;BME280;6456;42.680;23.260;2023-02-26T10:02:06;93292.16;;;19.20;27.71
12785;BME280;6456;42.680;23.260;2023-02-26T10:04:48;93269.22;;;18.92;27.62
12785;BME280;6456;42.680;23.260;2023-02-26T10:07:24;93299.94;;;19.03;27.53
12785;BME280;6456;42.680;23.260;2023-02-26T10:10:02;93270.34;;;18.91;27.85
12785;BME280;6456;42.680;23.260;2023-02-26T10:12:35;93307.03;;;18.94;28.14
12785;BME280;6456;42.680;23.260;2023-02-26T10:15:05;93246.22;;;18.69;28.33
12785;BME280;6456;42.680;23.260;2023-02-26T10:17:43;93268.84;;;18.85;28.16
12785;BME280;6456;42.680;23.260;2023-02-26T10:20:16;93287.09;;;18.92;28.02
12785;BME280;6456;42.680;23.260;2023-02-26T10:22:53;93240.91;;;18.83;29.77
12785;BME280;6456;42.680;23.260;2023-02-26T10:25:23;93286.63;;;19.03;28.46
12785;BME280;6456;42.680;23.260;2023-02-26T10:27:57;93266.97;;;18.99;28.60
12785;BME280;6456;42.680;23.260;2023-02-26T10:30:31;93244.66;;;18.82;32.85
12785;BME280;6456;42.680;23.260;2023-02-26T10:33:06;93265.88;;;19.00;28.71
12785;BME280;6456;42.680;23.260;2023-02-26T10:35:44;93218.31;;;18.80;30.26
12785;BME280;6456;42.680;23.260;2023-02-26T10:38:15;93209.03;;;18.91;28.65
12785;BME280;6456;42.680;23.260;2023-02-26T10:40:48;93224.31;;;18.99;nan
12785;BME280;6456;42.680;23.260;2023-02-26T10:43:20;93225.31;;;18.90;29.33
12785;BME280;6456;42.680;23.260;2023-02-26T10:46:00;93241.09;;;19.00;29.49
12785;BME280;6456;42.680;23.260;2023-02-26T10:48:39;93236.28;;;18.88;29.60
12785;BME280;6456;42.680;23.260;2023-02-26T10:51:13;93235.19;;;18.89;30.11
12785;BME280;6456;42.680;23.260;2023-02-26T10:53:42;93241.41;;;18.85;29.96
12785;BME280;6456;42.680;23.260;2023-02-26T10:56:15;93242.69;;;18.87;29.74
12785;BME280;6456;42.680;23.260;2023-02-26T10:58:42;93218.91;;;18.77;30.29
12785;BME280;6456;42.680;23.260;2023-02-26T11:01:13;93239.81;;;18.70;30.44
12785;BME280;6456;42.680;23.260;2023-02-26T11:03:45;93227.09;;;18.67;30.49
12785;BME280;6456;42.680;23.260;2023-02-26T11:06:17;93230.31;;;18.64;30.43
12785;BME280;6456;42.680;23.260;2023-02-26T11:08:48;93203.59;;;18.69;30.65
12785;BME280;6456;42.680;23.260;2023-02-26T11:11:39;93187.34;;;18.71;30.27
12785;BME280;6456;42.680;23.260;2023-02-26T11:14:07;93192.25;;;18.77;29.95
12785;BME280;6456;42.680;23.260;2023-02-26T11:16:42;93198.47;;;18.86;29.97
12785;BME280;6456;42.680;23.260;2023-02-26T11:19:13;93203.19;;;18.89;30.21
12785;BME280;6456;42.680;23.260;2023-02-26T11:21:43;93211.28;;;18.84;30.16
12785;BME280;6456;42.680;23.260;2023-02-26T11:24:13;93207.66;;;18.80;30.46
12785;BME280;6456;42.680;23.260;2023-02-26T11:26:48;93197.00;;;18.80;30.20
12785;BME280;6456;42.680;23.260;2023-02-26T11:29:19;93185.63;;;18.75;30.30
12785;BME280;6456;42.680;23.260;2023-02-26T11:31:49;93190.78;;;18.71;31.06
12785;BME280;6456;42.680;23.260;2023-02-26T11:34:21;93174.19;;;18.47;31.24
12785;BME280;6456;42.680;23.260;2023-02-26T11:36:49;93180.53;;;18.51;31.58
12785;BME280;6456;42.680;23.260;2023-02-26T11:39:20;93196.09;;;18.58;34.43
12785;BME280;6456;42.680;23.260;2023-02-26T11:41:49;93187.41;;;18.52;34.04
12785;BME280;6456;42.680;23.260;2023-02-26T11:44:18;93184.03;;;18.33;35.02
12785;BME280;6456;42.680;23.260;2023-02-26T11:46:49;93214.69;;;18.30;35.89
12785;BME280;6456;42.680;23.260;2023-02-26T11:49:21;93144.66;;;17.70;36.09
12785;BME280;6456;42.680;23.260;2023-02-26T11:52:04;93225.94;;;17.95;35.51
12785;BME280;6456;42.680;23.260;2023-02-26T11:54:34;93197.13;;;17.83;37.04
12785;BME280;6456;42.680;23.260;2023-02-26T11:57:02;93207.72;;;17.70;36.38
12785;BME280;6456;42.680;23.260;2023-02-26T11:59:32;93227.94;;;17.71;38.42
12785;BME280;6456;42.680;23.260;2023-02-26T12:02:02;93249.78;;;17.68;37.91
12785;BME280;6456;42.680;23.260;2023-02-26T12:04:32;93248.25;;;17.62;39.29
12785;BME280;6456;42.680;23.260;2023-02-26T12:06:58;93290.03;;;17.61;38.31
12785;BME280;6456;42.680;23.260;2023-02-26T12:09:25;93249.81;;;17.44;39.05
12785;BME280;6456;42.680;23.260;2023-02-26T12:12:09;93278.53;;;17.66;39.65
12785;BME280;6456;42.680;23.260;2023-02-26T12:14:57;93296.88;;;17.67;38.91
12785;BME280;6456;42.680;23.260;2023-02-26T12:17:35;93298.50;;;17.82;39.19
12785;BME280;6456;42.680;23.260;2023-02-26T12:20:17;93302.53;;;17.79;38.42
12785;BME280;6456;42.680;23.260;2023-02-26T12:22:50;93292.19;;;17.78;38.57
12785;BME280;6456;42.680;23.260;2023-02-26T12:25:58;93298.88;;;17.75;37.91
12785;BME280;6456;42.680;23.260;2023-02-26T12:28:52;93247.47;;;17.43;38.66
12785;BME280;6456;42.680;23.260;2023-02-26T12:34:54;93274.97;;;17.33;39.40
12785;BME280;6456;42.680;23.260;2023-02-26T12:37:36;93337.19;;;17.32;38.52
12785;BME280;6456;42.680;23.260;2023-02-26T12:43:10;93334.66;;;17.64;38.40
12785;BME280;6456;42.680;23.260;2023-02-26T12:45:49;93340.88;;;17.78;38.40
12785;BME280;6456;42.680;23.260;2023-02-26T12:48:44;93311.94;;;17.72;38.11
12785;BME280;6456;42.680;23.260;2023-02-26T12:51:23;93356.50;;;18.04;39.33
12785;BME280;6456;42.680;23.260;2023-02-26T12:54:16;93351.94;;;18.04;38.06
12785;BME280;6456;42.680;23.260;2023-02-26T12:57:09;93360.84;;;17.94;38.49
12785;BME280;6456;42.680;23.260;2023-02-26T13:00:02;93371.81;;;17.93;38.90
12785;BME280;6456;42.680;23.260;2023-02-26T13:03:06;93349.84;;;17.82;38.33
12785;BME280;6456;42.680;23.260;2023-02-26T13:05:59;93385.31;;;17.97;38.68
12785;BME280;6456;42.680;23.260;2023-02-26T13:08:38;93311.41;;;17.51;37.64
12785;BME280;6456;42.680;23.260;2023-02-26T13:11:20;93371.56;;;17.89;39.26
12785;BME280;6456;42.680;23.260;2023-02-26T13:14:03;93377.41;;;17.91;39.67
12785;BME280;6456;42.680;23.260;2023-02-26T13:16:48;93386.69;;;17.94;39.71
12785;BME280;6456;42.680;23.260;2023-02-26T13:19:28;93335.53;;;17.60;39.19
12785;BME280;6456;42.680;23.260;2023-02-26T13:21:59;93373.59;;;17.98;40.05
12785;BME280;6456;42.680;23.260;2023-02-26T13:24:35;93383.81;;;17.90;40.64
12785;BME280;6456;42.680;23.260;2023-02-26T13:27:06;93310.22;;;17.62;40.32
12785;BME280;6456;42.680;23.260;2023-02-26T13:29:36;93353.00;;;17.84;40.93
12785;BME280;6456;42.680;23.260;2023-02-26T13:32:08;93355.47;;;18.00;40.72
12785;BME280;6456;42.680;23.260;2023-02-26T13:34:41;93354.66;;;17.99;41.26